createdAt,value
2018-02-10T00:03:56.342Z,87.91
2018-02-10T00:10:00.901Z,88.13
2018-02-10T00:16:06.259Z,88.15
2018-02-10T00:22:11.527Z,87.90
2018-02-10T00:28:16.171Z,88.25
2018-02-10T00:34:20.984Z,88.54
2018-02-10T00:40:26.267Z,88.92
2018-02-10T00:46:31.518Z,88.63
2018-02-10T00:52:36.059Z,89.10
2018-02-10T00:58:40.707Z,88.78
2018-02-10T01:04:45.970Z,89.40
2018-02-10T01:10:51.007Z,89.49
2018-02-10T01:16:55.572Z,89.57
2018-02-10T01:23:00.225Z,90.29
2018-02-10T01:29:04.786Z,90.11
2018-02-10T01:35:09.380Z,89.66
2018-02-10T01:41:13.910Z,89.27
2018-02-10T01:47:18.528Z,89.48
2018-02-10T01:53:23.420Z,89.60
2018-02-10T01:59:28.127Z,89.41
2018-02-10T02:05:32.654Z,89.24
2018-02-10T02:11:37.153Z,88.75
2018-02-10T02:17:41.701Z,88.46
2018-02-10T02:23:47.811Z,87.98
2018-02-10T02:29:53.281Z,87.90
2018-02-10T02:35:57.842Z,87.63
2018-02-10T02:42:02.436Z,87.23
2018-02-10T02:48:06.980Z,86.87
2018-02-10T02:54:11.531Z,86.87
2018-02-10T03:00:17.064Z,86.69
2018-02-10T03:06:21.651Z,86.34
2018-02-10T03:12:26.236Z,86.50
2018-02-10T03:18:30.804Z,86.94
2018-02-10T03:24:35.277Z,86.70
2018-02-10T03:30:39.827Z,86.67
2018-02-10T03:36:44.467Z,86.65
2018-02-10T03:42:49.981Z,86.26
2018-02-10T03:48:54.987Z,86.60
2018-02-10T03:54:59.512Z,87.19
2018-02-10T04:01:04.020Z,87.34
2018-02-10T04:07:08.519Z,87.44
2018-02-10T04:13:13.202Z,86.97
2018-02-10T04:19:17.736Z,87.31
2018-02-10T04:25:22.705Z,87.34
2018-02-10T04:31:27.279Z,87.36
2018-02-10T04:37:31.905Z,87.60
2018-02-10T04:43:37.359Z,87.49
2018-02-10T04:49:42.058Z,87.10
2018-02-10T04:55:46.609Z,87.32
2018-02-10T05:01:51.602Z,87.09
2018-02-10T05:07:56.083Z,86.91
2018-02-10T05:14:00.800Z,87.14
2018-02-10T05:20:05.272Z,87.35
2018-02-10T05:26:10.792Z,87.16
2018-02-10T05:32:15.347Z,87.23
2018-02-10T05:38:20.586Z,87.18
2018-02-10T05:44:25.455Z,87.11
2018-02-10T05:50:30.287Z,86.86
2018-02-10T05:56:35.035Z,86.87
2018-02-10T06:02:40.286Z,86.71
2018-02-10T06:08:44.800Z,86.37
2018-02-10T06:14:49.465Z,86.27
2018-02-10T06:20:55.804Z,86.58
2018-02-10T06:27:01.196Z,86.33
2018-02-10T06:33:05.755Z,86.21
2018-02-10T06:39:10.225Z,86.42
2018-02-10T06:45:14.727Z,86.34
2018-02-10T06:51:19.374Z,86.32
2018-02-10T06:57:24.226Z,86.19
2018-02-10T07:03:28.844Z,86.03
2018-02-10T07:09:33.328Z,86.21
2018-02-10T07:15:37.811Z,85.53
2018-02-10T07:21:42.319Z,85.28
2018-02-10T07:27:46.960Z,84.89
2018-02-10T07:33:52.771Z,84.63
2018-02-10T07:39:57.301Z,84.30
2018-02-10T07:46:02.870Z,84.05
2018-02-10T07:52:07.361Z,84.85
2018-02-10T07:58:12.624Z,85.16
2018-02-10T08:04:17.438Z,85.55
2018-02-10T08:10:22.053Z,85.02
2018-02-10T08:16:27.322Z,85.06
2018-02-10T08:22:31.975Z,84.16
2018-02-10T08:28:36.499Z,84.06
2018-02-10T08:34:41.156Z,83.57
2018-02-10T08:40:45.739Z,83.33
2018-02-10T08:46:51.024Z,82.64
2018-02-10T08:52:55.648Z,83.18
2018-02-10T08:59:00.121Z,83.45
2018-02-10T09:05:05.354Z,82.14
2018-02-10T09:11:09.846Z,82.24
2018-02-10T09:17:14.517Z,82.62
2018-02-10T09:23:19.925Z,82.59
2018-02-10T09:29:25.026Z,82.12
2018-02-10T09:35:29.499Z,82.12
2018-02-10T09:41:34.164Z,82.48
2018-02-10T09:47:38.680Z,82.38
2018-02-10T09:53:43.306Z,81.96
2018-02-10T09:59:48.530Z,82.02
2018-02-10T10:05:53.087Z,81.88
2018-02-10T10:11:57.547Z,82.29
2018-02-10T10:18:02.057Z,82.42
2018-02-10T10:24:06.776Z,82.03
2018-02-10T10:30:11.422Z,81.82
2018-02-10T10:36:15.991Z,81.44
2018-02-10T10:42:21.077Z,80.35
2018-02-10T10:48:25.687Z,80.84
2018-02-10T10:54:30.178Z,81.05
2018-02-10T11:00:35.444Z,80.77
2018-02-10T11:06:39.955Z,80.21
2018-02-10T11:12:44.485Z,79.54
2018-02-10T11:18:48.988Z,79.85
2018-02-10T11:24:53.510Z,80.88
2018-02-10T11:30:58.085Z,81.01
2018-02-10T11:37:03.394Z,80.91
2018-02-10T11:43:07.918Z,80.78
2018-02-10T11:49:12.361Z,80.43
2018-02-10T11:55:16.856Z,80.23
2018-02-10T12:01:21.480Z,79.75
2018-02-10T12:07:26.012Z,81.35
2018-02-10T12:13:30.501Z,81.43
2018-02-10T12:19:34.975Z,81.46
2018-02-10T12:25:39.502Z,81.59
2018-02-10T12:31:44.745Z,81.39
2018-02-10T12:37:49.282Z,82.22
2018-02-10T12:43:53.790Z,83.27
2018-02-10T12:49:58.280Z,83.90
2018-02-10T12:56:02.854Z,84.55
2018-02-10T13:02:07.344Z,85.15
2018-02-10T13:08:11.868Z,85.58
2018-02-10T13:14:17.118Z,85.53
2018-02-10T13:20:22.568Z,85.97
2018-02-10T13:26:27.854Z,86.40
2018-02-10T13:32:33.313Z,86.34
2018-02-10T13:38:37.946Z,86.61
2018-02-10T13:44:43.171Z,86.69
2018-02-10T13:50:47.656Z,86.67
2018-02-10T13:56:52.243Z,86.49
2018-02-10T14:02:56.714Z,86.20
2018-02-10T14:09:01.209Z,85.78
2018-02-10T14:15:05.735Z,85.52
2018-02-10T14:21:10.242Z,85.86
2018-02-10T14:27:14.809Z,85.78
2018-02-10T14:33:19.284Z,85.14
2018-02-10T14:39:23.843Z,85.64
2018-02-10T14:45:29.078Z,85.92
2018-02-10T14:51:33.552Z,85.70
2018-02-10T14:57:38.150Z,85.52
2018-02-10T15:03:42.645Z,85.75
2018-02-10T15:09:47.120Z,85.60
2018-02-10T15:15:51.807Z,86.07
2018-02-10T15:21:56.379Z,86.21
2018-02-10T15:28:00.937Z,86.43
2018-02-10T15:40:54.567Z,86.91
2018-02-10T15:47:00.030Z,87.34
2018-02-10T15:53:04.643Z,87.12
2018-02-10T15:59:09.958Z,87.42
2018-02-10T16:05:14.767Z,87.78
2018-02-10T16:11:19.334Z,87.88
2018-02-10T16:17:23.862Z,87.59
2018-02-10T16:23:28.541Z,87.18
2018-02-10T16:29:33.081Z,87.35
2018-02-10T16:35:37.595Z,86.76
2018-02-10T16:41:42.498Z,86.94
2018-02-10T16:47:47.819Z,86.86
2018-02-10T16:53:52.470Z,86.61
2018-02-10T16:59:57.020Z,86.15
2018-02-10T17:06:01.559Z,85.85
2018-02-10T17:12:06.102Z,84.80
2018-02-10T17:18:10.762Z,84.75
2018-02-10T17:24:15.434Z,84.40
2018-02-10T17:30:20.719Z,85.48
2018-02-10T17:36:26.396Z,86.26
2018-02-10T17:42:31.188Z,86.41
2018-02-10T17:48:35.955Z,86.68
2018-02-10T17:54:41.220Z,87.08
2018-02-10T18:00:45.744Z,87.25
2018-02-10T18:06:51.170Z,87.26
2018-02-10T18:12:55.697Z,87.46
2018-02-10T18:19:00.971Z,87.34
2018-02-10T18:25:05.466Z,87.85
2018-02-10T18:31:10.010Z,87.31
2018-02-10T18:37:14.522Z,87.10
2018-02-10T18:43:19.823Z,86.49
2018-02-10T18:49:24.643Z,86.76
2018-02-10T18:55:29.163Z,86.94
2018-02-10T19:01:33.692Z,86.89
2018-02-10T19:07:38.455Z,86.92
2018-02-10T19:13:43.741Z,86.77
2018-02-10T19:19:48.288Z,86.95
2018-02-10T19:25:52.859Z,87.01
2018-02-10T19:31:57.393Z,86.89
2018-02-10T19:38:02.747Z,86.78
2018-02-10T19:44:07.242Z,86.77
2018-02-10T19:50:11.753Z,86.57
2018-02-10T19:56:17.211Z,86.22
2018-02-10T20:02:22.170Z,86.09
2018-02-10T20:08:26.783Z,86.07
2018-02-10T20:14:31.302Z,86.12
2018-02-10T20:20:35.817Z,85.81
2018-02-10T20:26:40.351Z,86.24
2018-02-10T20:32:44.881Z,86.53
2018-02-10T20:38:50.180Z,86.58
2018-02-10T20:44:54.936Z,86.59
2018-02-10T20:50:59.499Z,86.56
2018-02-10T20:57:04.413Z,86.57
2018-02-10T21:03:08.961Z,86.62
2018-02-10T21:09:14.263Z,86.84
2018-02-10T21:15:18.767Z,86.72
2018-02-10T21:21:25.177Z,86.69
2018-02-10T21:27:30.539Z,86.59
2018-02-10T21:33:35.958Z,86.60
2018-02-10T21:39:40.469Z,86.37
2018-02-10T21:45:44.991Z,86.29
2018-02-10T21:51:50.318Z,86.07
2018-02-10T21:57:54.826Z,85.93
2018-02-10T22:03:59.382Z,85.62
2018-02-10T22:10:04.786Z,85.58
2018-02-10T22:16:09.392Z,86.13
2018-02-10T22:22:13.887Z,85.84
2018-02-10T22:28:18.584Z,85.81
2018-02-10T22:34:23.169Z,85.58
2018-02-10T22:40:28.463Z,85.44
2018-02-10T22:46:33.773Z,84.84
2018-02-10T22:52:38.302Z,84.75
2018-02-10T22:58:42.787Z,84.26
2018-02-10T23:04:48.241Z,84.13
2018-02-10T23:10:52.890Z,84.10
2018-02-10T23:16:58.289Z,84.20
2018-02-10T23:23:03.555Z,84.47
2018-02-10T23:29:08.074Z,84.55
2018-02-10T23:35:12.710Z,84.39
2018-02-10T23:41:18.347Z,84.50
2018-02-10T23:47:23.241Z,84.58
2018-02-10T23:53:28.009Z,84.86
2018-02-10T23:59:33.399Z,84.56
